Huvudsida
METAR-TAF:

METAR-TAF

Flygplatser :

Halli Airport

Jämsä, Finland

latitud: 61-51N, longitud: 024-48E, höjd: 143 m

Aktuellt väderrapport

Denna rapport gjordes för 33 minuter sedan, klockan 15:50 UTC
Vind 3 kt varierande vindriktning
Temperatur -2°C
Fuktighet 100%
Tryck 1029 hPa
Sikt: 8000 m
Mulet på en höjd av 500 ft
lätt snö

METAR: EFHA 191550Z AUTO VRB03KT 8000 -SN OVC005 M02/M02 Q1029

Tid: 18:23 (16:23 UTC)

Väderprognos

Denna rapport gjordes för 4 timmar och 49 minuter sedan, klockan 11:34 UTC
Prognos gäller från 19 kl. 12 UTC till 19 kl. 14 UTC
Vind 3 kt från sydost
Sikt: 4000 m
Mulet på en höjd av 300 ft
lätt snö
Sannolikhet 40%
från 19 kl. 12 UTC till 19 kl. 14 UTC
Sikt: 8000 m
Brutna moln på en höjd av 600 ft
Sannolikhet 30% :
Temporärt
från 19 kl. 12 UTC till 19 kl. 14 UTC
(lätt) underkylt, duggregn

TAF: EFHA 191134Z 1912/1914 13003KT 4000 -SN OVC003 PROB40 1912/1914 8000 NSW BKN006 PROB30 TEMPO 1912/1914 -FZDZ

Aktuella väderrapporter och prognoser från 4000 flygplatser (METAR- och TAF-rapporter).

De tillgängliga stationerna syns som gula och röda prickar på kartan.

För musen över prickarna för att se namnen på stationerna.

Klicka sedan för att få väderrapporter och prognoser.

För att ändra kartan: Klicka på de gröna knapparna med ett svart kors på för att zooma in; den gröna knappen med ett streck på för att zooma ut; eller på de gröna pilarna för angränsande kartor.


METAR-TAF: